KPF23O HEAL-LQMO
Flight info
| Callsign | KPF23O |
|---|---|
| Flight time | 2h 30m |
| Altitude | 40000 |
| Route | NOMRO T55 TANSA UL613 YNN UL604 DIMIS DCT PETAK DCT MOKUN DCT GEBNI |
| Aircraft | CL60/M-SBDE1E2E3FGHIJ1J4J5J7M3RWXYZ/LB1V1D1 |
Departure
| Time | 2026-05-07 18:01 |
|---|---|
| Airport | El Alamein International Airport (HEAL) |
Arrival
| Time | 2026-05-07 20:31 |
|---|---|
| Airport | Mostar International Airport (LQMO) |
| Time | Latitude | Longitude | Altitude | Speed | Heading |
|---|---|---|---|---|---|
| 2026-05-07 17:32 | 30.92862 | 28.46401 | 154 ft | 0 kts | 219° |
| 2026-05-07 17:55 | 30.92856 | 28.46394 | 154 ft | 3 kts | 219° |
| 2026-05-07 17:56 | 30.92809 | 28.46350 | 155 ft | 10 kts | 220° |
| 2026-05-07 17:56 | 30.92724 | 28.46263 | 155 ft | 14 kts | 221° |
| 2026-05-07 17:56 | 30.92657 | 28.46197 | 154 ft | 13 kts | 220° |
| 2026-05-07 17:56 | 30.92602 | 28.46141 | 154 ft | 11 kts | 221° |
| 2026-05-07 17:57 | 30.92546 | 28.46088 | 153 ft | 10 kts | 206° |
| 2026-05-07 17:57 | 30.92488 | 28.46098 | 153 ft | 14 kts | 147° |
| 2026-05-07 17:57 | 30.92376 | 28.46240 | 154 ft | 21 kts | 130° |
| 2026-05-07 17:57 | 30.92276 | 28.46374 | 154 ft | 22 kts | 130° |
| 2026-05-07 17:58 | 30.92166 | 28.46524 | 153 ft | 18 kts | 131° |
| 2026-05-07 17:58 | 30.92078 | 28.46643 | 152 ft | 15 kts | 129° |
| 2026-05-07 17:58 | 30.91995 | 28.46752 | 152 ft | 20 kts | 130° |
| 2026-05-07 17:58 | 30.91890 | 28.46897 | 150 ft | 25 kts | 129° |
| 2026-05-07 17:59 | 30.91761 | 28.47069 | 150 ft | 30 kts | 130° |
| 2026-05-07 17:59 | 30.91647 | 28.47236 | 150 ft | 16 kts | 117° |
| 2026-05-07 17:59 | 30.91608 | 28.47263 | 151 ft | 6 kts | 267° |
| 2026-05-07 17:59 | 30.91633 | 28.47243 | 150 ft | 3 kts | 316° |
| 2026-05-07 18:00 | 30.91637 | 28.47237 | 150 ft | 0 kts | 310° |
| 2026-05-07 18:00 | 30.91681 | 28.47179 | 150 ft | 40 kts | 310° |
| 2026-05-07 18:00 | 30.92087 | 28.46624 | 153 ft | 136 kts | 310° |
| 2026-05-07 18:00 | 30.92826 | 28.45639 | 604 ft | 175 kts | 316° |
| 2026-05-07 18:01 | 30.93696 | 28.44556 | 1460 ft | 195 kts | 318° |
| 2026-05-07 18:01 | 30.94683 | 28.43463 | 2490 ft | 204 kts | 326° |
| 2026-05-07 18:01 | 30.95975 | 28.42527 | 3190 ft | 236 kts | 335° |
| 2026-05-07 18:01 | 30.97431 | 28.41447 | 3950 ft | 257 kts | 328° |
| 2026-05-07 18:02 | 31.00398 | 28.39018 | 5453 ft | 264 kts | 327° |
| 2026-05-07 18:02 | 31.01915 | 28.37781 | 6221 ft | 266 kts | 327° |
| 2026-05-07 18:02 | 31.03433 | 28.36545 | 6978 ft | 269 kts | 327° |
| 2026-05-07 18:03 | 31.04983 | 28.35286 | 7741 ft | 272 kts | 327° |
| 2026-05-07 18:03 | 31.06755 | 28.33848 | 8602 ft | 274 kts | 326° |
| 2026-05-07 18:03 | 31.08564 | 28.32382 | 9470 ft | 277 kts | 326° |
| 2026-05-07 18:03 | 31.10149 | 28.31100 | 10224 ft | 279 kts | 326° |
| 2026-05-07 18:04 | 31.11858 | 28.29719 | 11008 ft | 294 kts | 326° |
| 2026-05-07 18:04 | 31.13614 | 28.28300 | 11767 ft | 313 kts | 325° |
| 2026-05-07 18:04 | 31.15464 | 28.26806 | 12402 ft | 334 kts | 325° |
| 2026-05-07 18:04 | 31.17611 | 28.25072 | 12948 ft | 352 kts | 325° |
| 2026-05-07 18:05 | 31.19827 | 28.23281 | 13666 ft | 354 kts | 325° |
| 2026-05-07 18:05 | 31.21921 | 28.21589 | 14447 ft | 356 kts | 325° |
| 2026-05-07 18:05 | 31.24136 | 28.19800 | 15267 ft | 361 kts | 325° |
| 2026-05-07 18:05 | 31.26442 | 28.17938 | 16096 ft | 366 kts | 324° |
| 2026-05-07 18:06 | 31.28801 | 28.16031 | 16948 ft | 371 kts | 324° |
| 2026-05-07 18:06 | 31.31077 | 28.14191 | 17754 ft | 374 kts | 325° |
| 2026-05-07 18:06 | 31.33228 | 28.12451 | 18516 ft | 378 kts | 325° |
| 2026-05-07 18:06 | 31.35402 | 28.10692 | 19270 ft | 381 kts | 325° |
| 2026-05-07 18:07 | 31.37593 | 28.08918 | 20027 ft | 383 kts | 325° |
| 2026-05-07 18:07 | 31.39780 | 28.07147 | 20779 ft | 385 kts | 325° |
| 2026-05-07 18:07 | 31.41991 | 28.05356 | 21533 ft | 386 kts | 325° |
| 2026-05-07 18:07 | 31.44188 | 28.03575 | 22276 ft | 388 kts | 325° |
| 2026-05-07 18:08 | 31.46415 | 28.01769 | 23039 ft | 388 kts | 326° |
| 2026-05-07 18:08 | 31.48637 | 27.99972 | 23800 ft | 389 kts | 326° |
| 2026-05-07 18:08 | 31.51032 | 27.98531 | 24556 ft | 389 kts | 337° |
| 2026-05-07 18:08 | 31.53570 | 27.97389 | 25317 ft | 389 kts | 338° |
| 2026-05-07 18:09 | 31.56066 | 27.96262 | 26065 ft | 388 kts | 337° |
| 2026-05-07 18:09 | 31.58586 | 27.95121 | 26812 ft | 386 kts | 337° |
| 2026-05-07 18:09 | 31.61083 | 27.93989 | 27339 ft | 390 kts | 337° |
| 2026-05-07 18:09 | 31.63651 | 27.92823 | 27776 ft | 394 kts | 337° |
| 2026-05-07 18:10 | 31.66223 | 27.91655 | 28210 ft | 398 kts | 337° |
| 2026-05-07 18:10 | 31.68920 | 27.90429 | 28713 ft | 400 kts | 336° |
| 2026-05-07 18:10 | 31.71645 | 27.89190 | 29185 ft | 402 kts | 337° |
| 2026-05-07 18:10 | 31.74459 | 27.87909 | 29692 ft | 402 kts | 336° |
| 2026-05-07 18:11 | 31.77276 | 27.86626 | 30320 ft | 399 kts | 336° |
| 2026-05-07 18:11 | 31.80083 | 27.85348 | 31095 ft | 392 kts | 336° |
| 2026-05-07 18:11 | 31.82770 | 27.84122 | 31987 ft | 382 kts | 337° |
| 2026-05-07 18:11 | 31.85360 | 27.82941 | 32890 ft | 370 kts | 336° |
| 2026-05-07 18:12 | 31.87755 | 27.81847 | 33646 ft | 362 kts | 337° |
| 2026-05-07 18:12 | 31.90097 | 27.80777 | 34329 ft | 355 kts | 336° |
| 2026-05-07 18:12 | 31.92379 | 27.79730 | 34825 ft | 353 kts | 337° |
| 2026-05-07 18:12 | 31.94686 | 27.78672 | 35227 ft | 353 kts | 336° |
| 2026-05-07 18:13 | 31.96999 | 27.77609 | 35544 ft | 354 kts | 336° |
| 2026-05-07 18:13 | 31.99309 | 27.76548 | 35924 ft | 353 kts | 337° |
| 2026-05-07 18:13 | 32.01574 | 27.75507 | 36317 ft | 352 kts | 337° |
| 2026-05-07 18:13 | 32.03869 | 27.74452 | 36704 ft | 351 kts | 337° |
| 2026-05-07 18:14 | 32.06138 | 27.73407 | 37024 ft | 350 kts | 337° |
| 2026-05-07 18:14 | 32.08431 | 27.72351 | 37350 ft | 350 kts | 337° |
| 2026-05-07 18:14 | 32.10712 | 27.71300 | 37629 ft | 349 kts | 336° |
| 2026-05-07 18:14 | 32.12969 | 27.70260 | 37903 ft | 350 kts | 336° |
| 2026-05-07 18:15 | 32.15264 | 27.69202 | 38199 ft | 349 kts | 337° |
| 2026-05-07 18:15 | 32.17522 | 27.68160 | 38500 ft | 349 kts | 337° |
| 2026-05-07 18:15 | 32.19801 | 27.67108 | 38838 ft | 347 kts | 336° |
| 2026-05-07 18:15 | 32.22042 | 27.66072 | 39108 ft | 346 kts | 337° |
| 2026-05-07 18:16 | 32.24314 | 27.65022 | 39322 ft | 346 kts | 337° |
| 2026-05-07 18:16 | 32.26536 | 27.63995 | 39544 ft | 346 kts | 336° |
| 2026-05-07 18:16 | 32.28804 | 27.62946 | 39744 ft | 346 kts | 336° |
| 2026-05-07 18:16 | 32.31042 | 27.61910 | 39926 ft | 345 kts | 336° |
| 2026-05-07 18:17 | 32.33298 | 27.60863 | 40076 ft | 346 kts | 337° |
| 2026-05-07 18:17 | 32.37808 | 27.58769 | 40132 ft | 350 kts | 336° |
| 2026-05-07 18:18 | 32.42405 | 27.56631 | 40133 ft | 355 kts | 336° |
| 2026-05-07 18:18 | 32.47037 | 27.54476 | 40133 ft | 358 kts | 336° |
| 2026-05-07 18:19 | 32.51676 | 27.52315 | 40133 ft | 358 kts | 336° |
| 2026-05-07 18:19 | 32.56342 | 27.50139 | 40131 ft | 358 kts | 337° |
| 2026-05-07 18:20 | 32.60999 | 27.47966 | 40132 ft | 356 kts | 336° |
| 2026-05-07 18:20 | 32.65621 | 27.45806 | 40132 ft | 355 kts | 336° |
| 2026-05-07 18:21 | 32.70272 | 27.43630 | 40132 ft | 355 kts | 336° |
| 2026-05-07 18:21 | 32.74929 | 27.41442 | 40132 ft | 356 kts | 336° |
| 2026-05-07 18:22 | 32.79560 | 27.39263 | 40132 ft | 356 kts | 336° |
| 2026-05-07 18:22 | 32.84195 | 27.37079 | 40133 ft | 355 kts | 336° |
| 2026-05-07 18:23 | 32.88797 | 27.34908 | 40132 ft | 355 kts | 336° |
| 2026-05-07 18:23 | 32.93433 | 27.32719 | 40133 ft | 356 kts | 335° |
| 2026-05-07 18:24 | 32.98093 | 27.30516 | 40132 ft | 356 kts | 335° |
| 2026-05-07 18:24 | 33.02734 | 27.28320 | 40132 ft | 355 kts | 335° |
| 2026-05-07 18:25 | 33.07364 | 27.26126 | 40133 ft | 355 kts | 335° |
| 2026-05-07 18:25 | 33.12042 | 27.23908 | 40132 ft | 355 kts | 335° |
| 2026-05-07 18:26 | 33.16664 | 27.21712 | 40132 ft | 356 kts | 335° |
| 2026-05-07 18:26 | 33.21277 | 27.19518 | 40133 ft | 357 kts | 335° |
| 2026-05-07 18:27 | 33.25907 | 27.17314 | 40139 ft | 357 kts | 335° |
| 2026-05-07 18:27 | 33.30534 | 27.15109 | 40144 ft | 356 kts | 335° |
| 2026-05-07 18:28 | 33.35152 | 27.12906 | 40145 ft | 356 kts | 335° |
| 2026-05-07 18:28 | 33.39731 | 27.10718 | 40143 ft | 356 kts | 335° |
| 2026-05-07 18:29 | 33.44368 | 27.08500 | 40143 ft | 357 kts | 335° |
| 2026-05-07 18:29 | 33.48985 | 27.06290 | 40141 ft | 357 kts | 335° |
| 2026-05-07 18:30 | 33.53612 | 27.04071 | 40138 ft | 357 kts | 334° |
| 2026-05-07 18:30 | 33.58232 | 27.01854 | 40140 ft | 356 kts | 334° |
| 2026-05-07 18:31 | 33.62843 | 26.99639 | 40144 ft | 357 kts | 334° |
| 2026-05-07 18:31 | 33.67497 | 26.97400 | 40139 ft | 357 kts | 335° |
| 2026-05-07 18:32 | 33.72091 | 26.95188 | 40143 ft | 356 kts | 335° |
| 2026-05-07 18:32 | 33.76702 | 26.92964 | 40153 ft | 357 kts | 334° |
| 2026-05-07 18:33 | 33.81330 | 26.90729 | 40151 ft | 359 kts | 335° |
| 2026-05-07 18:33 | 33.85993 | 26.88476 | 40156 ft | 359 kts | 334° |
| 2026-05-07 18:34 | 33.90635 | 26.86229 | 40145 ft | 358 kts | 334° |
| 2026-05-07 18:34 | 33.95252 | 26.83992 | 40149 ft | 358 kts | 334° |
| 2026-05-07 18:35 | 33.99832 | 26.81635 | 40151 ft | 356 kts | 328° |
| 2026-05-07 18:35 | 34.03852 | 26.78122 | 40149 ft | 355 kts | 322° |
| 2026-05-07 18:36 | 34.07772 | 26.74490 | 40147 ft | 356 kts | 322° |
| 2026-05-07 18:36 | 34.11705 | 26.70840 | 40148 ft | 357 kts | 322° |
| 2026-05-07 18:37 | 34.15648 | 26.67175 | 40144 ft | 358 kts | 322° |
| 2026-05-07 18:37 | 34.19595 | 26.63502 | 40143 ft | 358 kts | 322° |
| 2026-05-07 18:38 | 34.23543 | 26.59822 | 40145 ft | 358 kts | 322° |
| 2026-05-07 18:38 | 34.27472 | 26.56156 | 40138 ft | 358 kts | 322° |
| 2026-05-07 18:39 | 34.31426 | 26.52461 | 40142 ft | 358 kts | 323° |
| 2026-05-07 18:39 | 34.35366 | 26.48775 | 40139 ft | 358 kts | 322° |
| 2026-05-07 18:40 | 34.39317 | 26.45075 | 40139 ft | 358 kts | 322° |
| 2026-05-07 18:40 | 34.43272 | 26.41366 | 40143 ft | 358 kts | 322° |
| 2026-05-07 18:41 | 34.47228 | 26.37651 | 40145 ft | 358 kts | 322° |
| 2026-05-07 18:41 | 34.51159 | 26.33955 | 40138 ft | 359 kts | 322° |
| 2026-05-07 18:42 | 34.55112 | 26.30234 | 40141 ft | 359 kts | 322° |
| 2026-05-07 18:42 | 34.59065 | 26.26508 | 40146 ft | 358 kts | 322° |
| 2026-05-07 18:43 | 34.63003 | 26.22791 | 40151 ft | 358 kts | 322° |
| 2026-05-07 18:43 | 34.66930 | 26.19081 | 40157 ft | 357 kts | 322° |
| 2026-05-07 18:44 | 34.70879 | 26.15344 | 40154 ft | 357 kts | 321° |
| 2026-05-07 18:44 | 34.74797 | 26.11633 | 40151 ft | 356 kts | 321° |
| 2026-05-07 18:45 | 34.78698 | 26.07934 | 40152 ft | 356 kts | 322° |
| 2026-05-07 18:45 | 34.82624 | 26.04207 | 40153 ft | 356 kts | 321° |
| 2026-05-07 18:46 | 34.86532 | 26.00491 | 40157 ft | 356 kts | 322° |
| 2026-05-07 18:46 | 34.90458 | 25.96754 | 40153 ft | 356 kts | 321° |
| 2026-05-07 18:47 | 34.94360 | 25.93034 | 40153 ft | 355 kts | 322° |
| 2026-05-07 18:47 | 34.98274 | 25.89299 | 40153 ft | 355 kts | 322° |
| 2026-05-07 18:48 | 35.02169 | 25.85577 | 40152 ft | 356 kts | 322° |
| 2026-05-07 18:48 | 35.06082 | 25.81834 | 40153 ft | 356 kts | 322° |
| 2026-05-07 18:49 | 35.09987 | 25.78093 | 40151 ft | 356 kts | 322° |
| 2026-05-07 18:49 | 35.13878 | 25.74342 | 40150 ft | 357 kts | 321° |
| 2026-05-07 18:50 | 35.17780 | 25.70575 | 40156 ft | 356 kts | 321° |
| 2026-05-07 18:50 | 35.21660 | 25.66828 | 40161 ft | 356 kts | 321° |
| 2026-05-07 18:51 | 35.25578 | 25.63057 | 40174 ft | 356 kts | 321° |
| 2026-05-07 18:51 | 35.29473 | 25.59304 | 40175 ft | 357 kts | 321° |
| 2026-05-07 18:52 | 35.33384 | 25.55530 | 40173 ft | 358 kts | 322° |
| 2026-05-07 18:52 | 35.37315 | 25.51733 | 40169 ft | 358 kts | 321° |
| 2026-05-07 18:53 | 35.41238 | 25.47940 | 40160 ft | 358 kts | 321° |
| 2026-05-07 18:53 | 35.45155 | 25.44147 | 40152 ft | 358 kts | 321° |
| 2026-05-07 18:54 | 35.49066 | 25.40354 | 40143 ft | 358 kts | 321° |
| 2026-05-07 18:54 | 35.52980 | 25.36554 | 40143 ft | 358 kts | 321° |
| 2026-05-07 18:55 | 35.56921 | 25.32723 | 40137 ft | 359 kts | 321° |
| 2026-05-07 18:55 | 35.60847 | 25.28901 | 40133 ft | 359 kts | 321° |
| 2026-05-07 18:56 | 35.64771 | 25.25077 | 40130 ft | 359 kts | 320° |
| 2026-05-07 18:56 | 35.68679 | 25.21262 | 40132 ft | 360 kts | 320° |
| 2026-05-07 18:57 | 35.72606 | 25.17425 | 40127 ft | 360 kts | 320° |
| 2026-05-07 18:57 | 35.76542 | 25.13574 | 40122 ft | 360 kts | 320° |
| 2026-05-07 18:58 | 35.80494 | 25.09703 | 40124 ft | 360 kts | 320° |
| 2026-05-07 18:58 | 35.84401 | 25.05870 | 40119 ft | 361 kts | 320° |
| 2026-05-07 18:59 | 35.88332 | 25.02009 | 40119 ft | 361 kts | 320° |
| 2026-05-07 18:59 | 35.92274 | 24.98132 | 40117 ft | 361 kts | 320° |
| 2026-05-07 19:00 | 35.96192 | 24.94274 | 40116 ft | 362 kts | 320° |
| 2026-05-07 19:00 | 36.00153 | 24.90368 | 40112 ft | 362 kts | 320° |
| 2026-05-07 19:01 | 36.04080 | 24.86490 | 40114 ft | 363 kts | 320° |
| 2026-05-07 19:01 | 36.08038 | 24.82576 | 40118 ft | 364 kts | 320° |
| 2026-05-07 19:02 | 36.12001 | 24.78650 | 40119 ft | 364 kts | 319° |
| 2026-05-07 19:02 | 36.15982 | 24.74702 | 40119 ft | 364 kts | 320° |
| 2026-05-07 19:03 | 36.19922 | 24.70788 | 40123 ft | 364 kts | 320° |
| 2026-05-07 19:03 | 36.23891 | 24.66841 | 40120 ft | 364 kts | 319° |
| 2026-05-07 19:04 | 36.27852 | 24.62897 | 40124 ft | 364 kts | 319° |
| 2026-05-07 19:04 | 36.31802 | 24.58958 | 40125 ft | 365 kts | 319° |
| 2026-05-07 19:05 | 36.35755 | 24.55011 | 40127 ft | 365 kts | 319° |
| 2026-05-07 19:05 | 36.39729 | 24.51038 | 40124 ft | 365 kts | 320° |
| 2026-05-07 19:06 | 36.43701 | 24.47061 | 40129 ft | 365 kts | 319° |
| 2026-05-07 19:06 | 36.49648 | 24.41096 | 40128 ft | 367 kts | 320° |
| 2026-05-07 19:07 | 36.53629 | 24.37096 | 40130 ft | 368 kts | 319° |
| 2026-05-07 19:07 | 36.57603 | 24.33098 | 40131 ft | 368 kts | 319° |
| 2026-05-07 19:08 | 36.61620 | 24.29051 | 40130 ft | 368 kts | 319° |
| 2026-05-07 19:08 | 36.65604 | 24.25033 | 40130 ft | 367 kts | 319° |
| 2026-05-07 19:09 | 36.69594 | 24.21003 | 40130 ft | 367 kts | 319° |
| 2026-05-07 19:09 | 36.73548 | 24.17003 | 40133 ft | 367 kts | 319° |
| 2026-05-07 19:10 | 36.77521 | 24.12979 | 40132 ft | 367 kts | 319° |
| 2026-05-07 19:10 | 36.81476 | 24.08967 | 40133 ft | 367 kts | 319° |
| 2026-05-07 19:11 | 36.85465 | 24.04915 | 40131 ft | 367 kts | 319° |
| 2026-05-07 19:11 | 36.89420 | 24.00893 | 40134 ft | 367 kts | 319° |
| 2026-05-07 19:12 | 36.93395 | 23.96847 | 40132 ft | 367 kts | 319° |
| 2026-05-07 19:12 | 36.97341 | 23.92827 | 40130 ft | 366 kts | 319° |
| 2026-05-07 19:13 | 37.01301 | 23.88789 | 40133 ft | 367 kts | 319° |
| 2026-05-07 19:13 | 37.05284 | 23.84720 | 40132 ft | 368 kts | 318° |
| 2026-05-07 19:14 | 37.09243 | 23.80671 | 40130 ft | 367 kts | 319° |
| 2026-05-07 19:14 | 37.12574 | 23.77261 | 40117 ft | 367 kts | 319° |
| 2026-05-07 19:15 | 37.16523 | 23.73212 | 40128 ft | 366 kts | 318° |
| 2026-05-07 19:15 | 37.20459 | 23.69169 | 40125 ft | 367 kts | 319° |
| 2026-05-07 19:16 | 37.24413 | 23.65102 | 40129 ft | 367 kts | 319° |
| 2026-05-07 19:16 | 37.28383 | 23.61014 | 40122 ft | 367 kts | 318° |
| 2026-05-07 19:17 | 37.32333 | 23.56939 | 40120 ft | 367 kts | 319° |
| 2026-05-07 19:17 | 37.36295 | 23.52847 | 40118 ft | 367 kts | 318° |
| 2026-05-07 19:18 | 37.40232 | 23.48776 | 40117 ft | 367 kts | 317° |
| 2026-05-07 19:18 | 37.44188 | 23.44678 | 40123 ft | 367 kts | 318° |
| 2026-05-07 19:19 | 37.48141 | 23.40578 | 40123 ft | 367 kts | 318° |
| 2026-05-07 19:19 | 37.52075 | 23.36491 | 40130 ft | 367 kts | 318° |
| 2026-05-07 19:20 | 37.56044 | 23.32363 | 40122 ft | 368 kts | 317° |
| 2026-05-07 19:20 | 37.60005 | 23.28237 | 40121 ft | 367 kts | 317° |
| 2026-05-07 19:21 | 37.63943 | 23.24129 | 40118 ft | 367 kts | 316° |
| 2026-05-07 19:21 | 37.67876 | 23.20022 | 40123 ft | 366 kts | 317° |
| 2026-05-07 19:22 | 37.71809 | 23.15908 | 40126 ft | 366 kts | 316° |
| 2026-05-07 19:22 | 37.75759 | 23.11770 | 40135 ft | 366 kts | 317° |
| 2026-05-07 19:23 | 37.79691 | 23.07645 | 40142 ft | 366 kts | 317° |
| 2026-05-07 19:23 | 37.83603 | 23.03536 | 40162 ft | 367 kts | 316° |
| 2026-05-07 19:24 | 37.87549 | 22.99384 | 40170 ft | 371 kts | 316° |
| 2026-05-07 19:24 | 37.91573 | 22.95142 | 40159 ft | 377 kts | 316° |
| 2026-05-07 19:25 | 37.95538 | 22.90713 | 40140 ft | 382 kts | 314° |
| 2026-05-07 19:25 | 37.99473 | 22.86139 | 40126 ft | 384 kts | 314° |
| 2026-05-07 19:26 | 38.03414 | 22.81555 | 40110 ft | 384 kts | 314° |
| 2026-05-07 19:26 | 38.07368 | 22.76948 | 40101 ft | 383 kts | 314° |
| 2026-05-07 19:27 | 38.11287 | 22.72377 | 40103 ft | 383 kts | 314° |
| 2026-05-07 19:27 | 38.15225 | 22.67798 | 40100 ft | 383 kts | 314° |
| 2026-05-07 19:28 | 38.19165 | 22.63217 | 40103 ft | 384 kts | 314° |
| 2026-05-07 19:28 | 38.23122 | 22.58608 | 40113 ft | 385 kts | 315° |
| 2026-05-07 19:29 | 38.27094 | 22.53974 | 40116 ft | 386 kts | 314° |
| 2026-05-07 19:29 | 38.31052 | 22.49350 | 40125 ft | 388 kts | 314° |
| 2026-05-07 19:30 | 38.35046 | 22.44678 | 40139 ft | 388 kts | 314° |
| 2026-05-07 19:30 | 38.39006 | 22.40038 | 40158 ft | 387 kts | 314° |
| 2026-05-07 19:31 | 38.42975 | 22.35380 | 40176 ft | 388 kts | 314° |
| 2026-05-07 19:31 | 38.46972 | 22.30681 | 40194 ft | 389 kts | 314° |
| 2026-05-07 19:32 | 38.50952 | 22.25995 | 40219 ft | 388 kts | 313° |
| 2026-05-07 19:32 | 38.54935 | 22.21297 | 40203 ft | 389 kts | 313° |
| 2026-05-07 19:33 | 38.58918 | 22.16593 | 40192 ft | 390 kts | 313° |
| 2026-05-07 19:33 | 38.62910 | 22.11866 | 40191 ft | 390 kts | 313° |
| 2026-05-07 19:34 | 38.66900 | 22.07134 | 40176 ft | 389 kts | 313° |
| 2026-05-07 19:34 | 38.70868 | 22.02421 | 40180 ft | 390 kts | 312° |
| 2026-05-07 19:35 | 38.74882 | 21.97646 | 40185 ft | 391 kts | 312° |
| 2026-05-07 19:35 | 38.78866 | 21.92898 | 40182 ft | 392 kts | 313° |
| 2026-05-07 19:36 | 38.82883 | 21.88104 | 40179 ft | 391 kts | 312° |
| 2026-05-07 19:36 | 38.86877 | 21.83329 | 40184 ft | 392 kts | 312° |
| 2026-05-07 19:37 | 38.90868 | 21.78551 | 40181 ft | 391 kts | 312° |
| 2026-05-07 19:37 | 38.94839 | 21.73789 | 40182 ft | 391 kts | 312° |
| 2026-05-07 19:38 | 38.98837 | 21.68987 | 40173 ft | 391 kts | 312° |
| 2026-05-07 19:38 | 39.02809 | 21.64208 | 40157 ft | 391 kts | 311° |
| 2026-05-07 19:39 | 39.06788 | 21.59412 | 40148 ft | 391 kts | 312° |
| 2026-05-07 19:39 | 39.10757 | 21.54622 | 40151 ft | 390 kts | 312° |
| 2026-05-07 19:40 | 39.14733 | 21.49816 | 40156 ft | 390 kts | 311° |
| 2026-05-07 19:40 | 39.18710 | 21.45000 | 40164 ft | 390 kts | 311° |
| 2026-05-07 19:41 | 39.22684 | 21.40179 | 40174 ft | 390 kts | 312° |
| 2026-05-07 19:41 | 39.26614 | 21.35403 | 40180 ft | 390 kts | 311° |
| 2026-05-07 19:42 | 39.30574 | 21.30585 | 40185 ft | 389 kts | 311° |
| 2026-05-07 19:42 | 39.34524 | 21.25770 | 40203 ft | 388 kts | 311° |
| 2026-05-07 19:43 | 39.38452 | 21.20975 | 40190 ft | 387 kts | 310° |
| 2026-05-07 19:43 | 39.42372 | 21.16181 | 40178 ft | 388 kts | 311° |
| 2026-05-07 19:44 | 39.46291 | 21.11381 | 40170 ft | 386 kts | 311° |
| 2026-05-07 19:44 | 39.50200 | 21.06585 | 40159 ft | 386 kts | 311° |
| 2026-05-07 19:45 | 39.54112 | 21.01777 | 40159 ft | 386 kts | 310° |
| 2026-05-07 19:45 | 39.58020 | 20.96966 | 40147 ft | 385 kts | 311° |
| 2026-05-07 19:46 | 39.61902 | 20.92179 | 40145 ft | 385 kts | 310° |
| 2026-05-07 19:46 | 39.65792 | 20.87374 | 40148 ft | 386 kts | 311° |
| 2026-05-07 19:47 | 39.69835 | 20.82698 | 40142 ft | 391 kts | 317° |
| 2026-05-07 19:47 | 39.74707 | 20.79277 | 40145 ft | 400 kts | 326° |
| 2026-05-07 19:48 | 39.79742 | 20.76234 | 40140 ft | 399 kts | 326° |
| 2026-05-07 19:48 | 39.84788 | 20.73173 | 40154 ft | 401 kts | 326° |
| 2026-05-07 19:49 | 39.89885 | 20.70075 | 40180 ft | 402 kts | 326° |
| 2026-05-07 19:49 | 39.94970 | 20.66980 | 40193 ft | 403 kts | 326° |
| 2026-05-07 19:50 | 40.00048 | 20.63884 | 40186 ft | 402 kts | 325° |
| 2026-05-07 19:50 | 40.05122 | 20.60785 | 40185 ft | 403 kts | 325° |
| 2026-05-07 19:51 | 40.10014 | 20.57505 | 40167 ft | 398 kts | 322° |
| 2026-05-07 19:51 | 40.14809 | 20.53986 | 40166 ft | 397 kts | 321° |
| 2026-05-07 19:52 | 40.19652 | 20.50433 | 40158 ft | 397 kts | 322° |
| 2026-05-07 19:52 | 40.24481 | 20.46885 | 40160 ft | 397 kts | 321° |
| 2026-05-07 19:53 | 40.29301 | 20.43337 | 40159 ft | 398 kts | 321° |
| 2026-05-07 19:53 | 40.34153 | 20.39763 | 40159 ft | 399 kts | 321° |
| 2026-05-07 19:54 | 40.38998 | 20.36188 | 40163 ft | 399 kts | 322° |
| 2026-05-07 19:54 | 40.43835 | 20.32614 | 40149 ft | 400 kts | 320° |
| 2026-05-07 19:55 | 40.48715 | 20.29002 | 40140 ft | 400 kts | 321° |
| 2026-05-07 19:55 | 40.53572 | 20.25402 | 40119 ft | 398 kts | 320° |
| 2026-05-07 19:56 | 40.58409 | 20.21812 | 40117 ft | 398 kts | 320° |
| 2026-05-07 19:56 | 40.63234 | 20.18221 | 40106 ft | 399 kts | 320° |
| 2026-05-07 19:57 | 40.68128 | 20.14573 | 40096 ft | 400 kts | 320° |
| 2026-05-07 19:57 | 40.72955 | 20.10972 | 40101 ft | 399 kts | 320° |
| 2026-05-07 19:58 | 40.77836 | 20.07323 | 40091 ft | 399 kts | 320° |
| 2026-05-07 19:58 | 40.82680 | 20.03696 | 40083 ft | 399 kts | 320° |
| 2026-05-07 19:59 | 40.87531 | 20.00057 | 40080 ft | 400 kts | 319° |
| 2026-05-07 19:59 | 40.92398 | 19.96400 | 40068 ft | 401 kts | 319° |
| 2026-05-07 20:00 | 40.97237 | 19.92758 | 40069 ft | 401 kts | 319° |
| 2026-05-07 20:00 | 41.02124 | 19.89071 | 40063 ft | 403 kts | 319° |
| 2026-05-07 20:01 | 41.07016 | 19.85377 | 40066 ft | 404 kts | 319° |
| 2026-05-07 20:01 | 41.11910 | 19.81684 | 40077 ft | 403 kts | 319° |
| 2026-05-07 20:02 | 41.16801 | 19.77978 | 40073 ft | 400 kts | 319° |
| 2026-05-07 20:02 | 41.21661 | 19.74287 | 40074 ft | 399 kts | 319° |
| 2026-05-07 20:03 | 41.26518 | 19.70589 | 40078 ft | 401 kts | 319° |
| 2026-05-07 20:03 | 41.31382 | 19.66882 | 40072 ft | 402 kts | 318° |
| 2026-05-07 20:04 | 41.36242 | 19.63172 | 40064 ft | 403 kts | 318° |
| 2026-05-07 20:04 | 41.41141 | 19.59425 | 40068 ft | 405 kts | 319° |
| 2026-05-07 20:05 | 41.46029 | 19.55682 | 40065 ft | 405 kts | 319° |
| 2026-05-07 20:05 | 41.50902 | 19.51943 | 40060 ft | 403 kts | 318° |
| 2026-05-07 20:06 | 41.55739 | 19.48236 | 40067 ft | 393 kts | 319° |
| 2026-05-07 20:06 | 41.60452 | 19.44611 | 40064 ft | 388 kts | 319° |
| 2026-05-07 20:07 | 41.65143 | 19.40991 | 40059 ft | 388 kts | 318° |
| 2026-05-07 20:07 | 41.69828 | 19.37367 | 40017 ft | 391 kts | 319° |
| 2026-05-07 20:08 | 41.72209 | 19.35517 | 39568 ft | 398 kts | 318° |
| 2026-05-07 20:08 | 41.74614 | 19.33655 | 39041 ft | 397 kts | 318° |
| 2026-05-07 20:08 | 41.76973 | 19.31765 | 38537 ft | 390 kts | 314° |
| 2026-05-07 20:08 | 41.79071 | 19.29530 | 38046 ft | 381 kts | 309° |
| 2026-05-07 20:09 | 41.81014 | 19.27157 | 37561 ft | 383 kts | 309° |
| 2026-05-07 20:09 | 41.82987 | 19.24748 | 37079 ft | 385 kts | 309° |
| 2026-05-07 20:09 | 41.84988 | 19.22304 | 36581 ft | 388 kts | 309° |
| 2026-05-07 20:10 | 41.89003 | 19.17396 | 35564 ft | 394 kts | 310° |
| 2026-05-07 20:10 | 41.91038 | 19.14905 | 34995 ft | 397 kts | 311° |
| 2026-05-07 20:10 | 41.93095 | 19.12384 | 34500 ft | 402 kts | 311° |
| 2026-05-07 20:10 | 41.95169 | 19.09840 | 33975 ft | 405 kts | 312° |
| 2026-05-07 20:11 | 41.97275 | 19.07254 | 33380 ft | 410 kts | 311° |
| 2026-05-07 20:11 | 41.99392 | 19.04654 | 32874 ft | 414 kts | 311° |
| 2026-05-07 20:11 | 42.01506 | 19.02054 | 32310 ft | 418 kts | 312° |
| 2026-05-07 20:11 | 42.03678 | 18.99380 | 31747 ft | 422 kts | 312° |
| 2026-05-07 20:12 | 42.05847 | 18.96708 | 31199 ft | 426 kts | 312° |
| 2026-05-07 20:12 | 42.08047 | 18.93995 | 30625 ft | 429 kts | 311° |
| 2026-05-07 20:12 | 42.10200 | 18.91337 | 30068 ft | 432 kts | 312° |
| 2026-05-07 20:12 | 42.12410 | 18.88611 | 29490 ft | 432 kts | 312° |
| 2026-05-07 20:13 | 42.14660 | 18.85830 | 28913 ft | 430 kts | 312° |
| 2026-05-07 20:13 | 42.16847 | 18.83126 | 28349 ft | 428 kts | 313° |
| 2026-05-07 20:13 | 42.19035 | 18.80417 | 27780 ft | 424 kts | 313° |
| 2026-05-07 20:13 | 42.21212 | 18.77718 | 27215 ft | 421 kts | 313° |
| 2026-05-07 20:14 | 42.23338 | 18.75080 | 26661 ft | 418 kts | 313° |
| 2026-05-07 20:14 | 42.25477 | 18.72424 | 26109 ft | 416 kts | 313° |
| 2026-05-07 20:14 | 42.27617 | 18.69762 | 25551 ft | 414 kts | 313° |
| 2026-05-07 20:14 | 42.29743 | 18.67116 | 24998 ft | 412 kts | 314° |
| 2026-05-07 20:15 | 42.31837 | 18.64506 | 24468 ft | 410 kts | 314° |
| 2026-05-07 20:15 | 42.33924 | 18.61904 | 23918 ft | 409 kts | 314° |
| 2026-05-07 20:15 | 42.36012 | 18.59296 | 23374 ft | 407 kts | 314° |
| 2026-05-07 20:15 | 42.38097 | 18.56691 | 22837 ft | 404 kts | 314° |
| 2026-05-07 20:16 | 42.40164 | 18.54106 | 22294 ft | 402 kts | 314° |
| 2026-05-07 20:16 | 42.42208 | 18.51547 | 21772 ft | 399 kts | 314° |
| 2026-05-07 20:16 | 42.44262 | 18.48976 | 21232 ft | 397 kts | 314° |
| 2026-05-07 20:16 | 42.46408 | 18.46617 | 20709 ft | 398 kts | 320° |
| 2026-05-07 20:17 | 42.48628 | 18.44432 | 20180 ft | 395 kts | 321° |
| 2026-05-07 20:17 | 42.50847 | 18.42246 | 19662 ft | 390 kts | 321° |
| 2026-05-07 20:17 | 42.53020 | 18.40101 | 19153 ft | 384 kts | 321° |
| 2026-05-07 20:17 | 42.55179 | 18.37968 | 18647 ft | 378 kts | 321° |
| 2026-05-07 20:18 | 42.57280 | 18.35891 | 18134 ft | 371 kts | 320° |
| 2026-05-07 20:18 | 42.59366 | 18.33827 | 17669 ft | 364 kts | 320° |
| 2026-05-07 20:18 | 42.61388 | 18.31824 | 17174 ft | 358 kts | 320° |
| 2026-05-07 20:18 | 42.63400 | 18.29828 | 16704 ft | 352 kts | 320° |
| 2026-05-07 20:19 | 42.65358 | 18.27885 | 16240 ft | 346 kts | 320° |
| 2026-05-07 20:19 | 42.67283 | 18.25972 | 15785 ft | 340 kts | 320° |
| 2026-05-07 20:19 | 42.69199 | 18.24066 | 15332 ft | 334 kts | 320° |
| 2026-05-07 20:19 | 42.71063 | 18.22212 | 14887 ft | 329 kts | 320° |
| 2026-05-07 20:20 | 42.72893 | 18.20389 | 14464 ft | 323 kts | 320° |
| 2026-05-07 20:20 | 42.74688 | 18.18598 | 14043 ft | 318 kts | 320° |
| 2026-05-07 20:20 | 42.76455 | 18.16834 | 13617 ft | 313 kts | 320° |
| 2026-05-07 20:20 | 42.78237 | 18.15055 | 13207 ft | 309 kts | 320° |
| 2026-05-07 20:21 | 42.80059 | 18.13267 | 12763 ft | 306 kts | 324° |
| 2026-05-07 20:21 | 42.81969 | 18.11973 | 12361 ft | 306 kts | 333° |
| 2026-05-07 20:21 | 42.83939 | 18.10815 | 11946 ft | 303 kts | 333° |
| 2026-05-07 20:21 | 42.85847 | 18.09685 | 11549 ft | 300 kts | 332° |
| 2026-05-07 20:22 | 42.87777 | 18.08539 | 11154 ft | 297 kts | 332° |
| 2026-05-07 20:22 | 42.89677 | 18.07411 | 10757 ft | 295 kts | 332° |
| 2026-05-07 20:22 | 42.91536 | 18.06306 | 10372 ft | 292 kts | 332° |
| 2026-05-07 20:22 | 42.93396 | 18.05199 | 9997 ft | 290 kts | 332° |
| 2026-05-07 20:23 | 42.95245 | 18.04100 | 9525 ft | 291 kts | 332° |
| 2026-05-07 20:23 | 42.97130 | 18.02978 | 8852 ft | 299 kts | 333° |
| 2026-05-07 20:23 | 42.99056 | 18.01802 | 8061 ft | 308 kts | 329° |
| 2026-05-07 20:23 | 43.00747 | 18.00045 | 7241 ft | 302 kts | 307° |
| 2026-05-07 20:24 | 43.01761 | 17.97627 | 6614 ft | 288 kts | 285° |
| 2026-05-07 20:24 | 43.02073 | 17.94961 | 5891 ft | 280 kts | 267° |
| 2026-05-07 20:24 | 43.02131 | 17.92349 | 5214 ft | 278 kts | 277° |
| 2026-05-07 20:24 | 43.02574 | 17.89775 | 4724 ft | 269 kts | 286° |
| 2026-05-07 20:25 | 43.03494 | 17.87687 | 4698 ft | 245 kts | 315° |
| 2026-05-07 20:25 | 43.04853 | 17.86515 | 4725 ft | 222 kts | 340° |
| 2026-05-07 20:25 | 43.06308 | 17.86109 | 4791 ft | 203 kts | 356° |
| 2026-05-07 20:25 | 43.07692 | 17.86046 | 4802 ft | 191 kts | 359° |
| 2026-05-07 20:26 | 43.09018 | 17.86011 | 4638 ft | 193 kts | 359° |
| 2026-05-07 20:26 | 43.10359 | 17.85971 | 4343 ft | 189 kts | 360° |
| 2026-05-07 20:26 | 43.11670 | 17.85932 | 4084 ft | 183 kts | 360° |
| 2026-05-07 20:26 | 43.12933 | 17.85773 | 3802 ft | 179 kts | 347° |
| 2026-05-07 20:27 | 43.14061 | 17.85118 | 3546 ft | 175 kts | 326° |
| 2026-05-07 20:27 | 43.14940 | 17.83986 | 3292 ft | 174 kts | 306° |
| 2026-05-07 20:27 | 43.15724 | 17.82710 | 3009 ft | 176 kts | 321° |
| 2026-05-07 20:27 | 43.16777 | 17.81900 | 2758 ft | 171 kts | 343° |
| 2026-05-07 20:28 | 43.17933 | 17.81630 | 2509 ft | 168 kts | 2° |
| 2026-05-07 20:28 | 43.19078 | 17.81877 | 2241 ft | 163 kts | 21° |
| 2026-05-07 20:28 | 43.20071 | 17.82592 | 2000 ft | 160 kts | 39° |
| 2026-05-07 20:28 | 43.20841 | 17.83613 | 1750 ft | 154 kts | 50° |
| 2026-05-07 20:29 | 43.21556 | 17.84696 | 1536 ft | 144 kts | 49° |
| 2026-05-07 20:29 | 43.22269 | 17.85557 | 1333 ft | 133 kts | 38° |
| 2026-05-07 20:29 | 43.23068 | 17.86148 | 1116 ft | 128 kts | 22° |
| 2026-05-07 20:29 | 43.23936 | 17.86432 | 930 ft | 128 kts | 8° |
| 2026-05-07 20:30 | 43.24834 | 17.86401 | 739 ft | 128 kts | 353° |
| 2026-05-07 20:30 | 43.25685 | 17.86061 | 547 ft | 128 kts | 340° |
| 2026-05-07 20:30 | 43.26512 | 17.85579 | 377 ft | 128 kts | 340° |
| 2026-05-07 20:30 | 43.27305 | 17.85139 | 193 ft | 123 kts | 341° |
| 2026-05-07 20:31 | 43.28045 | 17.84727 | 160 ft | 91 kts | 340° |
| 2026-05-07 20:31 | 43.28402 | 17.84531 | 164 ft | 43 kts | 336° |
| 2026-05-07 20:31 | 43.28684 | 17.84370 | 167 ft | 43 kts | 339° |
| 2026-05-07 20:31 | 43.28853 | 17.84272 | 169 ft | 7 kts | 316° |
| 2026-05-07 20:32 | 43.28852 | 17.84177 | 169 ft | 12 kts | 248° |
| 2026-05-07 20:32 | 43.28831 | 17.84108 | 169 ft | 10 kts | 247° |
| 2026-05-07 20:32 | 43.28802 | 17.84012 | 169 ft | 9 kts | 248° |
| 2026-05-07 20:32 | 43.28811 | 17.83966 | 169 ft | 7 kts | 334° |
| 2026-05-07 20:33 | 43.28880 | 17.83927 | 169 ft | 13 kts | 338° |
| 2026-05-07 20:33 | 43.28967 | 17.83877 | 169 ft | 13 kts | 338° |
| 2026-05-07 20:33 | 43.29033 | 17.83843 | 169 ft | 6 kts | 337° |
| 2026-05-07 20:33 | 43.29062 | 17.83787 | 169 ft | 10 kts | 258° |
| 2026-05-07 20:34 | 43.29054 | 17.83712 | 169 ft | 5 kts | 259° |
| 2026-05-07 20:34 | 43.29065 | 17.83693 | 169 ft | 2 kts | 18° |
| 2026-05-07 20:34 | 43.29072 | 17.83696 | 169 ft | 0 kts | 19° |